Time;durP1;ratioP1;P1;durP2;ratioP2;P2;SDS_P1;SDS_P2;PMS_P1;PMS_P2;Temp;Humidity;BMP_temperature;BMP_pressure;BME280_temperature;BME280_humidity;BME280_pressure;Samples;Min_cycle;Max_cycle;Signal;HPM_P1;HPM_P2
2023/04/26 04:25:12;;;;;;;116.13;12.73;;;;;;;3.49;100.00;96274.13;5065141;28;20176;-88
2023/04/26 04:27:47;;;;;;;81.83;11.57;;;;;;;3.29;100.00;96274.78;5059065;28;20038;-90
2023/04/26 04:31:35;;;;;;;63.33;8.97;;;;;;;3.30;100.00;96272.06;5074095;28;20142;-91
2023/04/26 04:35:06;;;;;;;15.50;8.73;;;;;;;3.45;100.00;96272.69;5010420;28;20150;-91
2023/04/26 04:38:23;;;;;;;51.17;8.63;;;;;;;3.44;100.00;96281.44;4986648;28;20044;-90
2023/04/26 04:44:46;;;;;;;30.43;7.00;;;;;;;3.48;100.00;96269.84;4986537;28;20049;-78
2023/04/26 04:51:38;;;;;;;64.63;11.13;;;;;;;3.48;100.00;96271.63;5032048;28;20088;-90
2023/04/26 05:21:37;;;;;;;18.43;10.43;;;;;;;4.87;100.00;96273.84;4955968;29;20042;-90
2023/04/26 07:03:02;;;;;;;8.73;5.93;;;;;;;12.11;100.00;96300.00;5070053;28;20130;-89
2023/04/26 07:56:59;;;;;;;4.25;2.17;;;;;;;15.23;83.82;96266.56;4963584;28;20102;-83
2023/04/26 07:59:25;;;;;;;10.82;3.75;;;;;;;16.87;76.44;96266.44;4972351;28;20500;-83
2023/04/26 08:01:53;;;;;;;6.90;2.92;;;;;;;17.66;69.93;96257.84;5070166;28;20094;-83
2023/04/26 08:04:33;;;;;;;8.45;3.03;;;;;;;17.50;63.57;96255.59;5072713;28;20489;-83
2023/04/26 08:07:05;;;;;;;10.02;4.07;;;;;;;16.20;70.87;96266.03;5048313;28;20029;-83
2023/04/26 08:09:31;;;;;;;7.88;3.40;;;;;;;16.53;77.31;96264.59;5071934;28;20394;-83
2023/04/26 08:11:57;;;;;;;7.07;3.25;;;;;;;17.24;71.35;96257.19;5054675;28;20024;-83
2023/04/26 08:14:23;;;;;;;7.55;3.70;;;;;;;17.50;69.24;96267.03;5054524;28;20020;-83
2023/04/26 08:16:50;;;;;;;6.57;3.45;;;;;;;16.92;74.64;96271.97;5066189;28;20064;-84
2023/04/26 08:19:16;;;;;;;7.38;2.90;;;;;;;16.23;69.38;96276.25;5051872;28;20090;-84
2023/04/26 08:21:41;;;;;;;6.97;2.92;;;;;;;17.48;64.23;96269.09;5066412;28;20489;-84
2023/04/26 08:24:07;;;;;;;7.47;3.10;;;;;;;17.31;66.02;96255.34;5054869;28;20043;-84
2023/04/26 08:26:35;;;;;;;8.30;3.05;;;;;;;17.96;64.94;96255.66;5066026;28;20032;-84
2023/04/26 08:29:00;;;;;;;6.07;3.28;;;;;;;17.93;72.85;96257.91;5053968;28;20103;-83
2023/04/26 08:31:26;;;;;;;6.90;3.67;;;;;;;18.82;63.57;96257.41;5045175;28;20565;-85
2023/04/26 08:33:52;;;;;;;8.60;3.35;;;;;;;18.87;63.19;96262.88;5065895;28;20032;-82
2023/04/26 08:36:19;;;;;;;9.95;3.22;;;;;;;18.08;55.94;96255.88;5053812;28;20024;-82
2023/04/26 08:38:51;;;;;;;9.45;4.13;;;;;;;18.98;59.54;96251.59;5051893;28;20023;-83
2023/04/26 08:41:23;;;;;;;8.48;3.28;;;;;;;18.11;52.54;96258.94;5054111;28;20044;-83
2023/04/26 08:43:49;;;;;;;8.35;3.60;;;;;;;16.92;69.25;96271.97;5037729;28;20032;-83
2023/04/26 08:46:26;;;;;;;7.30;3.75;;;;;;;16.44;78.59;96272.72;5055538;28;20349;-82
2023/04/26 08:49:04;;;;;;;9.43;3.72;;;;;;;17.12;74.96;96275.53;5051817;28;20025;-83
2023/04/26 08:51:32;;;;;;;8.68;3.47;;;;;;;17.13;72.41;96269.19;5047715;28;20043;-83
2023/04/26 08:54:05;;;;;;;11.30;3.60;;;;;;;17.54;71.11;96267.44;5053115;28;20115;-83
2023/04/26 08:56:34;;;;;;;6.90;3.22;;;;;;;17.65;57.15;96266.88;5074636;28;20032;-81
2023/04/26 08:58:59;;;;;;;7.22;3.38;;;;;;;18.31;58.63;96266.91;5053200;28;20045;-82
2023/04/26 09:01:28;;;;;;;6.63;2.95;;;;;;;17.80;54.71;96269.34;5063354;28;20067;-83
2023/04/26 09:03:55;;;;;;;5.53;2.50;;;;;;;19.15;58.52;96270.59;5052640;28;20071;-84
2023/04/26 09:06:22;;;;;;;6.82;3.08;;;;;;;18.77;58.05;96267.84;5063779;28;20501;-83
2023/04/26 09:08:49;;;;;;;8.02;3.00;;;;;;;17.86;64.42;96271.22;5055619;28;20028;-83
2023/04/26 09:11:15;;;;;;;7.13;3.40;;;;;;;17.61;56.94;96276.28;5063732;28;20028;-83
2023/04/26 09:13:41;;;;;;;7.43;3.25;;;;;;;19.75;54.87;96268.44;5057289;28;20500;-83
2023/04/26 09:16:08;;;;;;;8.52;3.33;;;;;;;18.71;57.12;96266.81;5056058;28;20474;-83
2023/04/26 09:18:33;;;;;;;9.38;3.38;;;;;;;16.60;68.91;96271.59;5055933;28;20083;-83
2023/04/26 09:21:05;;;;;;;6.70;2.75;;;;;;;16.65;68.83;96268.34;5068422;28;20116;-83
2023/04/26 09:23:32;;;;;;;7.15;3.00;;;;;;;16.53;62.74;96273.38;5071123;28;20521;-83
2023/04/26 09:26:44;;;;;;;6.78;2.78;;;;;;;16.07;69.02;96273.09;5054331;28;20017;-89
2023/04/26 09:34:11;;;;;;;6.38;2.40;;;;;;;16.91;68.89;96263.19;5035738;28;20052;-89
2023/04/26 09:44:22;;;;;;;9.27;3.40;;;;;;;16.09;81.63;96263.09;5077493;28;20386;-90
2023/04/26 09:47:31;;;;;;;6.18;2.90;;;;;;;16.54;67.61;96267.06;5046971;28;20112;-89
2023/04/26 09:49:57;;;;;;;9.20;3.25;;;;;;;17.65;70.81;96251.72;5066913;28;20044;-89
2023/04/26 09:52:49;;;;;;;6.88;2.35;;;;;;;17.50;53.75;96244.94;5073387;28;20048;-89
2023/04/26 09:56:33;;;;;;;7.05;3.03;;;;;;;17.60;51.91;96251.50;5074652;28;20047;-89
2023/04/26 09:59:42;;;;;;;6.35;2.15;;;;;;;16.02;61.48;96253.22;5081921;28;20024;-88
2023/04/26 10:02:22;;;;;;;3.40;1.60;;;;;;;16.02;61.30;96257.72;5071917;28;20074;-89
2023/04/26 10:04:50;;;;;;;5.60;2.30;;;;;;;14.60;74.46;96257.47;5060500;28;20035;-89
2023/04/26 10:07:18;;;;;;;6.57;2.38;;;;;;;15.55;75.63;96253.81;5051496;28;20076;-89
2023/04/26 10:09:48;;;;;;;6.13;2.42;;;;;;;14.07;76.77;96256.69;5081702;28;20050;-89
2023/04/26 10:12:16;;;;;;;9.57;2.63;;;;;;;14.32;75.39;96257.25;5050531;28;20032;-89
2023/04/26 10:14:43;;;;;;;7.93;2.33;;;;;;;15.42;63.71;96237.81;5056943;28;20033;-89
2023/04/26 10:17:13;;;;;;;5.03;2.10;;;;;;;16.08;68.92;96240.22;5051154;28;20036;-89
2023/04/26 10:19:43;;;;;;;5.25;2.60;;;;;;;15.13;66.06;96236.91;5058774;28;20717;-83
2023/04/26 10:22:36;;;;;;;5.22;2.25;;;;;;;15.27;73.36;96227.28;5058332;28;20067;-83
2023/04/26 10:25:01;;;;;;;6.28;2.50;;;;;;;16.10;67.96;96228.41;5057677;28;20037;-82
2023/04/26 10:27:45;;;;;;;6.18;2.35;;;;;;;16.20;60.36;96228.06;5045383;28;20029;-83
2023/04/26 10:30:18;;;;;;;6.68;2.22;;;;;;;16.52;73.52;96226.59;5041204;28;20054;-83
2023/04/26 10:32:56;;;;;;;5.80;2.75;;;;;;;15.41;71.76;96228.22;5039518;28;20029;-83
2023/04/26 10:35:22;;;;;;;7.75;2.75;;;;;;;16.09;64.82;96226.75;5041222;28;20033;-84
2023/04/26 10:38:00;;;;;;;8.40;2.58;;;;;;;15.54;63.78;96225.69;5081936;28;20028;-84
2023/04/26 10:40:26;;;;;;;6.32;2.90;;;;;;;15.32;68.16;96235.47;5073038;28;20111;-83
2023/04/26 10:43:15;;;;;;;7.15;2.33;;;;;;;14.06;78.55;96239.19;5070538;28;20059;-84
2023/04/26 10:45:42;;;;;;;10.35;5.38;;;;;;;15.07;73.88;96227.06;5050222;28;20037;-83
2023/04/26 10:48:18;;;;;;;5.70;1.90;;;;;;;13.97;74.23;96230.50;5050225;28;20025;-83
2023/04/26 10:51:09;;;;;;;5.90;1.92;;;;;;;14.17;73.50;96235.25;5039179;28;20040;-83
2023/04/26 10:53:47;;;;;;;4.47;2.33;;;;;;;14.49;79.92;96236.72;5040722;28;20108;-83
2023/04/26 10:56:24;;;;;;;6.65;2.63;;;;;;;14.25;80.97;96229.88;5036837;28;20086;-83
2023/04/26 10:59:11;;;;;;;6.82;2.38;;;;;;;14.47;77.38;96234.25;5051426;28;20472;-83
2023/04/26 11:01:38;;;;;;;7.20;2.58;;;;;;;13.93;81.95;96234.50;5061267;28;20054;-84
2023/04/26 11:04:11;;;;;;;6.75;2.00;;;;;;;14.12;79.76;96231.34;5069703;28;20100;-83
2023/04/26 11:06:53;;;;;;;2.90;1.33;;;;;;;14.85;74.92;96216.44;5052942;28;20024;-83
2023/04/26 11:09:35;;;;;;;13.63;3.95;;;;;;;14.75;71.56;96223.03;5049615;28;20261;-83
2023/04/26 11:12:03;;;;;;;6.00;2.13;;;;;;;15.93;66.12;96216.47;5054328;28;20043;-83
2023/04/26 11:14:29;;;;;;;5.05;2.22;;;;;;;16.20;66.67;96218.28;5044615;28;20029;-85
2023/04/26 11:16:55;;;;;;;6.30;2.15;;;;;;;16.30;59.42;96211.78;5069546;28;20037;-86
2023/04/26 11:19:21;;;;;;;5.95;1.88;;;;;;;16.38;55.54;96214.28;5052641;28;20060;-85
2023/04/26 11:21:49;;;;;;;6.30;2.00;;;;;;;16.10;56.45;96212.50;5050229;28;20093;-86
2023/04/26 11:24:15;;;;;;;4.25;1.70;;;;;;;15.44;56.68;96210.09;5048697;28;20089;-86
2023/04/26 11:26:40;;;;;;;11.07;2.88;;;;;;;15.20;68.05;96211.31;5043263;28;20036;-86
2023/04/26 11:29:12;;;;;;;6.32;1.88;;;;;;;15.17;69.59;96209.03;5065914;28;20083;-86
2023/04/26 11:31:38;;;;;;;5.20;2.50;;;;;;;14.34;66.72;96207.63;5050974;28;20033;-85
2023/04/26 11:34:10;;;;;;;6.53;2.38;;;;;;;15.07;74.37;96201.41;5043570;28;20513;-89
2023/04/26 11:36:37;;;;;;;6.10;2.17;;;;;;;15.65;66.68;96193.34;5056443;28;20051;-89
2023/04/26 11:39:07;;;;;;;7.10;2.75;;;;;;;16.67;63.18;96197.28;5054423;28;20036;-88
2023/04/26 11:41:33;;;;;;;3.88;1.77;;;;;;;16.62;53.92;96184.59;5059681;28;20074;-88
2023/04/26 11:43:59;;;;;;;6.43;2.75;;;;;;;17.07;58.34;96190.28;5072916;28;20016;-89
2023/04/26 11:46:25;;;;;;;5.03;1.98;;;;;;;15.74;53.89;96186.94;5064250;28;20072;-89
2023/04/26 11:48:51;;;;;;;6.50;1.60;;;;;;;15.40;61.64;96185.00;5058068;28;20037;-89
2023/04/26 11:51:17;;;;;;;5.88;1.95;;;;;;;14.90;66.56;96180.63;5053074;28;20059;-89
2023/04/26 11:53:44;;;;;;;6.80;1.80;;;;;;;16.81;56.42;96171.63;5059065;28;20041;-88
2023/04/26 11:56:18;;;;;;;6.72;1.92;;;;;;;17.19;54.87;96179.88;5065505;28;20037;-89
2023/04/26 11:58:51;;;;;;;4.43;1.80;;;;;;;17.11;46.34;96172.09;5049355;28;20051;-89
2023/04/26 12:01:24;;;;;;;4.38;1.70;;;;;;;15.88;48.41;96173.78;5061456;28;20028;-88
2023/04/26 12:03:53;;;;;;;6.25;1.88;;;;;;;16.83;53.67;96165.06;5069695;28;20040;-89
2023/04/26 12:06:29;;;;;;;4.63;1.90;;;;;;;15.55;55.93;96171.66;5056264;28;20017;-89
2023/04/26 12:08:56;;;;;;;6.13;2.00;;;;;;;15.36;50.76;96170.50;5058614;28;20119;-89
2023/04/26 12:11:21;;;;;;;9.57;3.72;;;;;;;15.58;59.34;96171.28;5057719;28;20036;-89
2023/04/26 12:13:47;;;;;;;3.30;1.83;;;;;;;15.51;60.76;96173.88;5049783;28;20043;-88
2023/04/26 12:16:13;;;;;;;7.05;1.70;;;;;;;15.43;58.66;96170.56;5048109;28;20033;-89
2023/04/26 12:18:48;;;;;;;3.75;1.75;;;;;;;15.81;50.97;96170.25;5047720;28;20051;-87
2023/04/26 12:21:14;;;;;;;3.90;1.80;;;;;;;16.07;53.94;96159.84;5053793;28;20048;-89
2023/04/26 12:23:52;;;;;;;4.07;1.70;;;;;;;16.20;49.42;96153.78;5052960;28;20039;-89
2023/04/26 12:26:19;;;;;;;6.45;1.95;;;;;;;15.66;54.49;96159.72;5060966;28;20047;-89
2023/04/26 12:28:45;;;;;;;5.30;2.45;;;;;;;14.84;55.27;96155.72;5059464;28;20123;-89
2023/04/26 12:31:13;;;;;;;6.07;2.10;;;;;;;14.85;54.97;96155.56;5056982;28;20077;-89
2023/04/26 12:33:39;;;;;;;4.90;1.80;;;;;;;14.84;53.46;96155.72;5050732;28;20552;-89
2023/04/26 12:36:10;;;;;;;4.57;1.60;;;;;;;15.28;50.43;96152.06;5050983;28;20029;-89
2023/04/26 12:38:37;;;;;;;8.60;2.40;;;;;;;15.52;53.36;96148.19;5058259;28;20113;-89
2023/04/26 12:41:04;;;;;;;5.53;1.95;;;;;;;16.57;51.69;96141.91;5054152;28;20032;-89
2023/04/26 12:43:29;;;;;;;6.93;2.00;;;;;;;16.88;43.52;96143.25;5056145;28;20048;-89
2023/04/26 12:45:55;;;;;;;5.72;1.60;;;;;;;17.41;47.42;96136.16;5058128;28;20477;-89
2023/04/26 12:48:21;;;;;;;5.00;2.17;;;;;;;17.46;47.14;96127.56;5058827;28;20547;-89
2023/04/26 12:50:46;;;;;;;4.88;1.98;;;;;;;17.37;46.97;96131.44;5075898;28;20032;-89
2023/04/26 12:53:12;;;;;;;4.43;1.60;;;;;;;17.42;49.22;96132.47;5059086;28;20086;-89
2023/04/26 12:55:38;;;;;;;4.68;1.77;;;;;;;17.61;47.41;96136.16;5055328;28;20037;-89
2023/04/26 12:58:04;;;;;;;6.20;1.80;;;;;;;18.04;48.20;96135.72;5051848;28;20020;-89
2023/04/26 13:00:30;;;;;;;3.22;1.55;;;;;;;18.28;47.42;96133.41;5068085;28;20381;-89
2023/04/26 13:02:57;;;;;;;5.97;2.20;;;;;;;18.05;48.84;96137.34;5065144;28;20061;-87
2023/04/26 13:05:23;;;;;;;6.32;1.83;;;;;;;17.23;48.23;96137.78;5055415;28;20079;-87
2023/04/26 13:07:50;;;;;;;6.95;1.98;;;;;;;16.78;55.59;96146.28;5053351;28;20025;-87
2023/04/26 13:10:16;;;;;;;5.95;1.77;;;;;;;16.41;54.16;96145.72;5055553;28;20032;-87
2023/04/26 13:12:42;;;;;;;7.35;2.20;;;;;;;16.62;57.46;96151.91;5068377;28;20041;-87
2023/04/26 13:15:08;;;;;;;8.60;4.82;;;;;;;16.49;57.55;96147.38;5048914;28;20037;-75
2023/04/26 13:17:35;;;;;;;14.23;8.25;;;;;;;17.87;48.00;96142.47;5061631;28;20029;-84
2023/04/26 13:20:03;;;;;;;14.80;7.60;;;;;;;17.00;52.89;96143.47;5046089;28;20813;-84
2023/04/26 13:22:33;;;;;;;4.43;2.25;;;;;;;15.93;57.75;96152.81;5051513;28;20119;-83
2023/04/26 13:24:59;;;;;;;5.43;1.77;;;;;;;16.48;58.19;96151.03;5048927;28;20037;-84
2023/04/26 13:27:25;;;;;;;4.55;1.80;;;;;;;17.23;49.23;96135.94;5040351;28;20078;-84
2023/04/26 13:29:56;;;;;;;8.40;2.30;;;;;;;17.70;48.39;96135.94;5051184;28;20470;-84
2023/04/26 13:32:29;;;;;;;5.95;1.80;;;;;;;17.40;46.62;96129.22;5055425;28;20064;-84
2023/04/26 13:34:55;;;;;;;5.32;2.13;;;;;;;17.68;41.70;96133.50;5072853;28;20751;-85
2023/04/26 13:37:23;;;;;;;4.10;1.70;;;;;;;16.34;48.37;96133.44;5079565;28;20084;-85
2023/04/26 13:40:10;;;;;;;6.10;2.22;;;;;;;16.09;51.07;96136.56;5071163;28;20127;-84
2023/04/26 13:42:38;;;;;;;5.82;2.00;;;;;;;16.75;53.16;96137.91;5052851;28;20486;-85
2023/04/26 13:45:08;;;;;;;6.43;1.95;;;;;;;16.54;53.88;96134.31;5054325;28;20494;-84
2023/04/26 13:47:35;;;;;;;4.88;2.08;;;;;;;17.65;47.59;96137.38;5069861;28;20055;-85
2023/04/26 13:50:01;;;;;;;4.28;1.50;;;;;;;16.94;44.51;96134.47;5053844;28;20386;-84
2023/04/26 13:52:35;;;;;;;5.95;2.10;;;;;;;17.05;46.93;96130.41;5050697;28;20033;-85
2023/04/26 13:55:02;;;;;;;3.90;2.05;;;;;;;16.99;51.92;96131.19;5035622;28;20546;-85
2023/04/26 13:57:30;;;;;;;6.10;2.83;;;;;;;16.82;49.90;96130.75;5044876;28;20065;-84
2023/04/26 14:00:06;;;;;;;5.22;1.77;;;;;;;17.76;47.55;96127.13;5071286;28;20044;-85
2023/04/26 14:02:42;;;;;;;6.63;2.10;;;;;;;17.32;51.18;96121.44;5053399;28;20080;-85
2023/04/26 14:05:08;;;;;;;4.97;1.83;;;;;;;17.47;50.58;96121.25;5060592;28;20552;-85
2023/04/26 14:07:46;;;;;;;8.35;2.58;;;;;;;16.91;52.62;96118.94;5053358;28;20039;-85
2023/04/26 14:10:12;;;;;;;5.05;1.80;;;;;;;17.50;51.44;96127.97;5050636;28;20038;-85
2023/04/26 14:12:41;;;;;;;5.75;2.17;;;;;;;17.67;52.33;96123.84;5079742;28;20032;-84
2023/04/26 14:15:08;;;;;;;6.53;2.05;;;;;;;16.94;57.45;96121.19;5053371;28;20032;-84
2023/04/26 14:17:37;;;;;;;8.55;2.17;;;;;;;16.70;55.90;96125.19;5057458;28;20398;-84
2023/04/26 14:20:04;;;;;;;5.03;3.00;;;;;;;16.22;54.33;96126.00;5055350;28;20063;-85
2023/04/26 14:23:07;;;;;;;5.82;2.47;;;;;;;15.12;62.40;96129.31;5068491;28;20490;-85
2023/04/26 14:25:51;;;;;;;4.30;1.58;;;;;;;15.77;65.07;96114.16;5067399;28;20025;-84
2023/04/26 14:28:27;;;;;;;5.55;2.00;;;;;;;16.63;57.97;96113.72;5044535;28;20040;-85
2023/04/26 14:30:53;;;;;;;4.28;1.90;;;;;;;16.39;56.96;96115.88;5044651;28;20448;-84
2023/04/26 14:33:19;;;;;;;7.93;2.25;;;;;;;16.19;58.59;96113.13;5069456;28;20032;-84
2023/04/26 14:35:45;;;;;;;4.75;2.08;;;;;;;16.76;54.19;96113.78;5052623;28;20028;-84
2023/04/26 14:38:12;;;;;;;5.22;1.80;;;;;;;16.64;57.97;96108.22;5052995;28;20045;-84
2023/04/26 14:40:38;;;;;;;6.07;2.38;;;;;;;16.69;58.80;96115.56;5057243;28;20036;-85
2023/04/26 14:43:04;;;;;;;5.20;1.77;;;;;;;16.75;57.17;96119.31;5070482;28;20040;-85
2023/04/26 14:45:32;;;;;;;5.05;2.13;;;;;;;16.72;54.16;96113.34;5045183;28;20029;-85
2023/04/26 14:48:01;;;;;;;7.70;2.10;;;;;;;16.40;54.80;96108.75;5064711;28;20031;-84
2023/04/26 14:50:33;;;;;;;6.63;2.35;;;;;;;17.08;54.69;96106.91;5069854;28;20032;-85
2023/04/26 14:53:06;;;;;;;5.32;2.58;;;;;;;16.68;55.74;96104.13;5048529;28;20032;-84
2023/04/26 14:55:32;;;;;;;5.35;1.90;;;;;;;16.34;56.27;96102.41;5041310;28;20037;-85
2023/04/26 14:58:02;;;;;;;4.40;1.50;;;;;;;15.60;59.01;96104.84;5052661;28;20090;-85
2023/04/26 15:00:29;;;;;;;4.85;1.90;;;;;;;15.27;57.76;96106.22;5045345;28;20033;-84
2023/04/26 15:02:55;;;;;;;6.43;2.50;;;;;;;15.49;61.43;96103.50;5063350;28;20098;-84
2023/04/26 15:05:22;;;;;;;5.32;2.42;;;;;;;15.18;63.83;96104.72;5068963;28;20024;-84
2023/04/26 15:07:50;;;;;;;4.40;1.77;;;;;;;14.76;55.85;96095.78;5067038;28;20025;-89
2023/04/26 15:10:19;;;;;;;4.60;1.98;;;;;;;14.26;69.61;96102.75;5061685;28;20469;-89
2023/04/26 15:12:45;;;;;;;6.30;2.57;;;;;;;14.68;68.13;96101.19;5051734;28;20490;-89
2023/04/26 15:15:20;;;;;;;7.40;3.00;;;;;;;14.68;68.82;96100.38;5055605;28;20157;-89
2023/04/26 15:17:47;;;;;;;4.57;2.07;;;;;;;14.56;64.96;96105.34;5055701;28;20037;-89
2023/04/26 15:20:13;;;;;;;5.57;1.90;;;;;;;14.93;63.33;96104.28;5056436;28;20049;-87
2023/04/26 15:22:45;;;;;;;5.67;2.00;;;;;;;14.99;64.97;96098.25;5062962;28;20047;-88
2023/04/26 15:25:12;;;;;;;5.40;1.90;;;;;;;14.92;68.79;96097.34;5071377;28;20043;-85
2023/04/26 15:27:37;;;;;;;8.43;2.60;;;;;;;15.48;69.91;96101.88;5072513;28;20025;-89
2023/04/26 15:30:04;;;;;;;4.60;1.80;;;;;;;15.64;64.79;96098.94;5071678;28;20040;-86
2023/04/26 15:32:30;;;;;;;5.40;1.83;;;;;;;15.66;63.80;96104.91;5082934;28;20062;-89
2023/04/26 15:34:59;;;;;;;6.73;2.47;;;;;;;15.03;70.43;96098.69;5077657;28;20037;-88
2023/04/26 15:37:25;;;;;;;5.65;2.20;;;;;;;15.17;66.69;96103.09;5076700;28;20055;-88
2023/04/26 15:39:56;;;;;;;4.93;1.70;;;;;;;15.22;66.15;96105.97;5057362;28;20021;-88
2023/04/26 15:42:22;;;;;;;6.77;3.47;;;;;;;14.59;67.92;96097.03;5056761;28;20039;-88
2023/04/26 15:44:48;;;;;;;5.00;2.33;;;;;;;14.48;71.97;96100.13;5059299;28;20032;-88
2023/04/26 15:47:14;;;;;;;4.60;1.87;;;;;;;14.44;70.55;96101.50;5054784;28;20120;-88
2023/04/26 15:49:40;;;;;;;5.33;2.37;;;;;;;14.24;70.12;96109.22;5050955;28;20119;-88
2023/04/26 15:52:06;;;;;;;7.73;2.77;;;;;;;14.28;70.05;96103.34;5052988;28;20564;-85
2023/04/26 15:54:31;;;;;;;7.53;2.50;;;;;;;14.18;60.19;96102.81;5056576;28;20031;-89
2023/04/26 15:56:57;;;;;;;7.27;2.40;;;;;;;14.08;66.43;96089.06;5070680;28;20032;-88
2023/04/26 15:59:23;;;;;;;8.27;2.10;;;;;;;14.54;64.28;96088.81;5058682;28;20029;-90
2023/04/26 16:01:48;;;;;;;7.50;2.33;;;;;;;14.34;68.10;96083.28;5060228;28;20032;-90
2023/04/26 16:04:14;;;;;;;7.93;2.27;;;;;;;14.06;69.42;96086.63;5055012;28;20052;-91
2023/04/26 16:06:40;;;;;;;9.60;4.83;;;;;;;14.52;75.80;96090.81;5060953;28;20104;-92
2023/04/26 16:09:17;;;;;;;9.90;6.83;;;;;;;14.72;68.54;96091.03;5059884;28;20041;-90
2023/04/26 16:11:43;;;;;;;15.47;12.30;;;;;;;14.75;62.19;96088.84;5059563;28;20119;-87
2023/04/26 16:14:09;;;;;;;12.03;9.63;;;;;;;14.68;63.64;96085.31;5058141;28;20079;-85
2023/04/26 16:16:44;;;;;;;9.00;6.47;;;;;;;14.66;66.00;96087.34;5058230;28;20116;-85
2023/04/26 16:19:11;;;;;;;10.50;6.97;;;;;;;14.91;65.06;96084.31;5053871;28;20036;-83
2023/04/26 16:21:38;;;;;;;6.80;3.20;;;;;;;14.43;63.88;96084.00;5065939;28;20056;-84
2023/04/26 16:24:05;;;;;;;8.50;4.13;;;;;;;14.43;62.88;96086.66;5053651;28;20092;-83
2023/04/26 16:26:35;;;;;;;10.53;4.90;;;;;;;14.69;65.08;96081.66;5066907;28;20037;-82
2023/04/26 16:29:00;;;;;;;6.23;2.97;;;;;;;14.59;66.49;96083.81;5073649;28;20032;-94
2023/04/26 16:31:26;;;;;;;14.90;10.23;;;;;;;14.64;69.94;96077.94;5056812;28;20043;-94
2023/04/26 16:33:54;;;;;;;11.17;5.10;;;;;;;14.51;66.82;96087.38;5046951;28;20071;-92
2023/04/26 16:36:21;;;;;;;11.13;6.43;;;;;;;14.58;67.64;96080.31;5056906;28;20489;-92
2023/04/26 16:38:47;;;;;;;9.47;5.50;;;;;;;14.31;63.72;96084.47;5055966;28;20059;-92
2023/04/26 16:41:13;;;;;;;24.23;19.80;;;;;;;14.02;68.14;96095.13;5074541;28;20523;-92
2023/04/26 16:43:38;;;;;;;31.73;28.17;;;;;;;14.31;64.39;96087.13;5053603;28;20028;-92
2023/04/26 16:46:06;;;;;;;19.00;16.73;;;;;;;14.12;68.69;96095.66;5054269;28;20048;-92
2023/04/26 16:48:34;;;;;;;10.03;8.40;;;;;;;14.33;65.85;96086.94;5057420;28;20354;-92
2023/04/26 16:51:04;;;;;;;9.23;4.43;;;;;;;14.12;67.71;96090.38;5057207;28;20048;-92
2023/04/26 16:53:30;;;;;;;5.40;2.40;;;;;;;14.10;68.74;96102.94;5057436;28;20409;-92
2023/04/26 16:56:08;;;;;;;5.97;2.50;;;;;;;14.05;64.84;96102.66;5058010;28;20035;-92
2023/04/26 16:58:33;;;;;;;6.27;2.77;;;;;;;13.83;62.79;96096.50;5057196;28;20511;-93
2023/04/26 17:00:59;;;;;;;5.57;2.17;;;;;;;13.71;65.47;96098.75;5058634;28;20082;-92
2023/04/26 17:03:41;;;;;;;4.07;2.30;;;;;;;13.81;68.47;96090.56;5050681;28;20119;-92
2023/04/26 17:06:09;;;;;;;9.47;3.27;;;;;;;13.77;69.70;96092.75;5068932;28;20020;-92
2023/04/26 17:08:35;;;;;;;7.43;2.67;;;;;;;13.67;70.06;96097.47;5100483;28;20017;-92
2023/04/26 17:11:01;;;;;;;9.13;2.27;;;;;;;13.36;72.48;96101.09;5059849;28;20033;-92
2023/04/26 17:13:32;;;;;;;5.47;2.40;;;;;;;13.05;73.51;96097.72;5067185;28;20086;-92
2023/04/26 17:15:58;;;;;;;4.27;2.10;;;;;;;13.48;72.35;96096.22;5051677;28;20032;-92
2023/04/26 17:18:27;;;;;;;5.07;2.27;;;;;;;13.49;73.17;96107.59;5049433;28;20053;-92
2023/04/26 17:20:55;;;;;;;5.83;2.50;;;;;;;13.59;67.03;96103.69;5077283;28;20036;-92
2023/04/26 17:23:20;;;;;;;4.93;2.10;;;;;;;13.53;69.61;96106.22;5058921;28;20048;-91
2023/04/26 17:25:46;;;;;;;7.20;2.33;;;;;;;13.32;70.24;96107.75;5077320;28;20036;-92
2023/04/26 17:28:13;;;;;;;5.27;2.30;;;;;;;13.45;68.88;96112.41;5060578;28;20086;-91
2023/04/26 17:30:43;;;;;;;6.60;2.30;;;;;;;13.45;69.17;96107.13;5061549;28;20051;-92
2023/04/26 17:33:09;;;;;;;8.10;2.50;;;;;;;12.93;71.44;96108.69;5060477;28;20044;-91
2023/04/26 17:35:46;;;;;;;8.53;3.27;;;;;;;13.18;70.50;96111.97;5075337;28;20032;-92
2023/04/26 17:38:11;;;;;;;6.03;2.50;;;;;;;13.14;73.61;96115.13;5057297;28;20020;-91
2023/04/26 17:40:38;;;;;;;8.43;2.20;;;;;;;13.03;72.58;96113.72;5056716;28;20574;-92
2023/04/26 17:43:06;;;;;;;8.07;2.00;;;;;;;12.95;73.23;96106.69;5053169;28;20033;-92
2023/04/26 17:45:35;;;;;;;6.13;2.20;;;;;;;13.05;74.79;96116.22;5058679;28;20040;-91
2023/04/26 17:48:00;;;;;;;5.33;2.20;;;;;;;12.87;76.77;96112.03;5060977;28;20042;-92
2023/04/26 17:50:26;;;;;;;5.67;2.10;;;;;;;12.75;81.97;96116.09;5059737;28;20028;-91
2023/04/26 17:52:52;;;;;;;7.40;2.40;;;;;;;12.57;84.25;96126.91;5058488;28;20037;-91
2023/04/26 17:55:24;;;;;;;7.20;3.03;;;;;;;12.67;84.47;96126.69;5075856;28;20036;-92
2023/04/26 17:57:50;;;;;;;7.13;3.53;;;;;;;12.48;85.83;96128.78;5042649;28;20067;-91
2023/04/26 18:00:16;;;;;;;6.40;2.80;;;;;;;12.49;89.54;96125.16;5071110;28;20498;-92
2023/04/26 18:02:53;;;;;;;6.77;2.43;;;;;;;12.24;90.78;96128.91;5054277;28;20051;-91
2023/04/26 18:05:18;;;;;;;6.40;1.97;;;;;;;12.05;93.18;96131.97;5051260;28;20043;-91
2023/04/26 18:08:10;;;;;;;4.20;1.90;;;;;;;11.93;99.16;96137.59;5055010;28;20029;-86
2023/04/26 18:11:17;;;;;;;5.40;1.97;;;;;;;11.88;95.69;96142.56;5056258;28;20080;-92
2023/04/26 18:14:02;;;;;;;4.40;2.13;;;;;;;11.74;100.00;96151.97;5064938;28;20106;-92
2023/04/26 18:17:05;;;;;;;8.07;3.07;;;;;;;11.60;100.00;96149.16;5055348;28;20037;-92
2023/04/26 18:19:31;;;;;;;8.82;3.95;;;;;;;11.33;100.00;96156.44;5039422;28;20049;-95
2023/04/26 18:21:57;;;;;;;7.57;3.60;;;;;;;11.35;100.00;96157.09;5073234;28;20036;-91
2023/04/26 18:24:29;;;;;;;7.47;3.00;;;;;;;11.23;100.00;96156.63;5082779;28;20028;-91
2023/04/26 18:27:01;;;;;;;7.00;3.25;;;;;;;11.05;100.00;96161.22;5080368;28;20051;-91
2023/04/26 18:29:27;;;;;;;7.13;2.63;;;;;;;11.10;100.00;96166.84;5059769;28;20127;-90
2023/04/26 18:31:53;;;;;;;10.07;4.40;;;;;;;11.17;100.00;96159.09;5058899;28;20060;-89
2023/04/26 18:34:42;;;;;;;7.70;3.87;;;;;;;10.90;100.00;96168.09;5060730;28;20052;-95
2023/04/26 18:40:55;;;;;;;9.10;3.20;;;;;;;10.72;100.00;96168.25;5059824;28;20505;-96
2023/04/26 18:43:20;;;;;;;9.77;3.77;;;;;;;10.74;100.00;96168.94;5042191;28;20033;-92
2023/04/26 18:45:46;;;;;;;7.53;2.93;;;;;;;10.63;100.00;96175.31;5049214;28;20425;-93
2023/04/26 18:48:11;;;;;;;10.93;5.20;;;;;;;10.67;100.00;96166.13;5042187;28;20033;-94
2023/04/26 18:54:25;;;;;;;8.87;3.90;;;;;;;10.61;100.00;96180.72;5080037;28;20035;-90
2023/04/26 18:57:00;;;;;;;10.37;4.87;;;;;;;10.70;100.00;96175.50;5080053;28;20028;-92
2023/04/26 18:59:26;;;;;;;8.80;4.20;;;;;;;10.72;100.00;96179.59;5093401;28;20135;-92
2023/04/26 19:01:51;;;;;;;9.33;4.07;;;;;;;10.60;100.00;96192.25;5079715;28;20074;-92
2023/04/26 19:04:20;;;;;;;7.20;3.27;;;;;;;10.57;100.00;96199.63;5079704;28;20032;-92
2023/04/26 19:07:14;;;;;;;10.27;4.90;;;;;;;10.66;100.00;96203.91;5061360;28;20028;-92
2023/04/26 19:09:45;;;;;;;12.38;5.57;;;;;;;10.62;100.00;96197.31;5070370;28;20036;-91
2023/04/26 19:12:12;;;;;;;8.23;3.73;;;;;;;10.50;100.00;96202.06;5057905;28;20040;-92
2023/04/26 19:14:39;;;;;;;9.17;3.37;;;;;;;10.39;100.00;96207.59;5059084;28;20060;-92
2023/04/26 19:17:05;;;;;;;9.13;4.47;;;;;;;10.39;100.00;96212.84;5052044;28;20017;-92
2023/04/26 19:19:30;;;;;;;9.47;3.67;;;;;;;10.35;100.00;96212.34;5061184;28;20037;-91
2023/04/26 19:21:57;;;;;;;8.77;4.00;;;;;;;10.40;100.00;96214.53;5060987;28;20028;-91
2023/04/26 19:24:23;;;;;;;10.57;4.40;;;;;;;10.48;100.00;96221.59;5074217;28;20036;-91
2023/04/26 19:26:51;;;;;;;9.50;4.67;;;;;;;10.34;100.00;96223.03;5081379;28;20028;-91
2023/04/26 19:29:17;;;;;;;9.37;4.60;;;;;;;10.27;100.00;96217.59;5064328;28;20036;-90
2023/04/26 19:31:43;;;;;;;9.33;4.10;;;;;;;10.33;100.00;96219.59;5065767;28;20097;-92
2023/04/26 19:34:09;;;;;;;9.37;3.93;;;;;;;10.29;100.00;96218.22;5080761;28;20031;-91
2023/04/26 19:36:35;;;;;;;6.40;3.53;;;;;;;10.29;100.00;96223.50;5069343;28;20036;-91
2023/04/26 19:39:03;;;;;;;9.23;3.90;;;;;;;10.30;100.00;96219.91;5063230;28;20028;-91